sensor_id;sensor_type;location;lat;lon;timestamp;pressure;altitude;pressure_sealevel;temperature;humidity
47166;BME280;32930;51.112;13.762;2022-12-19T00:01:26;100552.09;;;-1.48;65.31
47166;BME280;32930;51.112;13.762;2022-12-19T00:03:55;100577.34;;;-1.46;64.85
47166;BME280;32930;51.112;13.762;2022-12-19T00:06:22;100573.75;;;-1.50;65.04
47166;BME280;32930;51.112;13.762;2022-12-19T00:08:49;100582.06;;;-1.63;65.37
47166;BME280;32930;51.112;13.762;2022-12-19T00:11:18;100569.94;;;-1.56;65.74
47166;BME280;32930;51.112;13.762;2022-12-19T00:13:44;100576.47;;;-1.47;65.25
47166;BME280;32930;51.112;13.762;2022-12-19T00:16:13;100580.00;;;-1.80;66.04
47166;BME280;32930;51.112;13.762;2022-12-19T00:18:41;100565.78;;;-1.68;65.87
47166;BME280;32930;51.112;13.762;2022-12-19T00:21:09;100569.50;;;-1.51;65.21
47166;BME280;32930;51.112;13.762;2022-12-19T00:23:35;100561.53;;;-1.69;65.54
47166;BME280;32930;51.112;13.762;2022-12-19T00:26:08;100565.69;;;-1.69;65.37
47166;BME280;32930;51.112;13.762;2022-12-19T00:28:34;100568.66;;;-2.10;65.73
47166;BME280;32930;51.112;13.762;2022-12-19T00:31:00;100566.59;;;-1.92;66.03
47166;BME280;32930;51.112;13.762;2022-12-19T00:33:26;100567.75;;;-1.64;65.07
47166;BME280;32930;51.112;13.762;2022-12-19T00:35:59;100569.59;;;-1.61;65.05
47166;BME280;32930;51.112;13.762;2022-12-19T00:38:26;100552.44;;;-1.67;65.20
47166;BME280;32930;51.112;13.762;2022-12-19T00:40:52;100563.13;;;-2.51;65.72
47166;BME280;32930;51.112;13.762;2022-12-19T00:43:17;100539.47;;;-2.08;66.49
47166;BME280;32930;51.112;13.762;2022-12-19T00:45:43;100545.13;;;-1.99;65.69
47166;BME280;32930;51.112;13.762;2022-12-19T00:48:08;100553.34;;;-2.13;65.65
47166;BME280;32930;51.112;13.762;2022-12-19T00:50:34;100555.66;;;-2.04;65.77
47166;BME280;32930;51.112;13.762;2022-12-19T00:52:59;100557.25;;;-2.05;65.42
47166;BME280;32930;51.112;13.762;2022-12-19T00:55:25;100548.53;;;-2.10;65.77
47166;BME280;32930;51.112;13.762;2022-12-19T00:57:50;100541.22;;;-2.42;65.44
47166;BME280;32930;51.112;13.762;2022-12-19T01:00:16;100547.22;;;-2.28;65.55
47166;BME280;32930;51.112;13.762;2022-12-19T01:02:42;100542.91;;;-2.53;66.43
47166;BME280;32930;51.112;13.762;2022-12-19T01:05:08;100537.47;;;-2.47;65.79
47166;BME280;32930;51.112;13.762;2022-12-19T01:07:34;100536.84;;;-2.33;65.08
47166;BME280;32930;51.112;13.762;2022-12-19T01:10:00;100531.94;;;-2.20;65.53
47166;BME280;32930;51.112;13.762;2022-12-19T01:12:26;100562.03;;;-2.55;65.41
47166;BME280;32930;51.112;13.762;2022-12-19T01:15:14;100541.50;;;-2.49;65.57
47166;BME280;32930;51.112;13.762;2022-12-19T01:17:40;100533.56;;;-2.20;65.31
47166;BME280;32930;51.112;13.762;2022-12-19T01:20:06;100529.59;;;-2.97;65.71
47166;BME280;32930;51.112;13.762;2022-12-19T01:22:32;100522.38;;;-2.71;65.70
47166;BME280;32930;51.112;13.762;2022-12-19T01:24:57;100498.13;;;-2.59;66.05
47166;BME280;32930;51.112;13.762;2022-12-19T01:27:23;100523.50;;;-2.32;65.09
47166;BME280;32930;51.112;13.762;2022-12-19T01:29:48;100510.28;;;-2.41;65.61
47166;BME280;32930;51.112;13.762;2022-12-19T01:32:14;100506.34;;;-2.49;65.51
47166;BME280;32930;51.112;13.762;2022-12-19T01:34:40;100501.22;;;-2.51;65.22
47166;BME280;32930;51.112;13.762;2022-12-19T01:37:05;100506.47;;;-2.36;64.65
47166;BME280;32930;51.112;13.762;2022-12-19T01:39:31;100496.19;;;-2.16;64.08
47166;BME280;32930;51.112;13.762;2022-12-19T01:41:57;100485.78;;;-2.56;64.54
47166;BME280;32930;51.112;13.762;2022-12-19T01:44:24;100477.06;;;-2.37;64.18
47166;BME280;32930;51.112;13.762;2022-12-19T01:46:53;100485.28;;;-2.51;64.67
47166;BME280;32930;51.112;13.762;2022-12-19T01:51:57;100478.59;;;-2.63;64.23
47166;BME280;32930;51.112;13.762;2022-12-19T01:54:33;100473.47;;;-2.52;64.42
47166;BME280;32930;51.112;13.762;2022-12-19T01:57:01;100487.44;;;-2.68;64.88
47166;BME280;32930;51.112;13.762;2022-12-19T01:59:35;100466.53;;;-2.90;65.41
47166;BME280;32930;51.112;13.762;2022-12-19T02:02:10;100467.88;;;-2.84;65.09
47166;BME280;32930;51.112;13.762;2022-12-19T02:04:38;100466.06;;;-3.08;65.82
47166;BME280;32930;51.112;13.762;2022-12-19T02:07:09;100455.66;;;-2.79;65.78
47166;BME280;32930;51.112;13.762;2022-12-19T02:09:35;100470.81;;;-3.23;65.64
47166;BME280;32930;51.112;13.762;2022-12-19T02:12:02;100457.31;;;-3.13;66.01
47166;BME280;32930;51.112;13.762;2022-12-19T02:14:28;100449.06;;;-3.00;66.09
47166;BME280;32930;51.112;13.762;2022-12-19T02:17:18;100441.22;;;-2.93;65.58
47166;BME280;32930;51.112;13.762;2022-12-19T02:29:38;100418.09;;;-2.66;65.00
47166;BME280;32930;51.112;13.762;2022-12-19T02:34:47;100416.56;;;-2.75;65.21
47166;BME280;32930;51.112;13.762;2022-12-19T02:37:26;100422.03;;;-2.58;64.99
47166;BME280;32930;51.112;13.762;2022-12-19T02:40:19;100425.84;;;-2.86;65.44
47166;BME280;32930;51.112;13.762;2022-12-19T02:42:54;100425.09;;;-2.85;65.31
47166;BME280;32930;51.112;13.762;2022-12-19T02:45:25;100415.06;;;-2.62;65.18
47166;BME280;32930;51.112;13.762;2022-12-19T02:47:52;100412.19;;;-2.43;65.06
47166;BME280;32930;51.112;13.762;2022-12-19T02:50:18;100432.72;;;-2.72;65.00
47166;BME280;32930;51.112;13.762;2022-12-19T02:52:46;100420.59;;;-2.77;65.85
47166;BME280;32930;51.112;13.762;2022-12-19T02:55:17;100422.38;;;-2.41;65.67
47166;BME280;32930;51.112;13.762;2022-12-19T03:01:03;100461.97;;;-2.84;65.92
47166;BME280;32930;51.112;13.762;2022-12-19T03:11:22;100431.00;;;-2.73;66.89
47166;BME280;32930;51.112;13.762;2022-12-19T03:13:55;100428.47;;;-2.73;67.48
47166;BME280;32930;51.112;13.762;2022-12-19T03:16:23;100435.34;;;-2.82;67.72
47166;BME280;32930;51.112;13.762;2022-12-19T03:18:53;100439.16;;;-2.40;66.96
47166;BME280;32930;51.112;13.762;2022-12-19T03:21:34;100446.50;;;-2.67;66.86
47166;BME280;32930;51.112;13.762;2022-12-19T03:24:03;100423.78;;;-2.57;66.99
47166;BME280;32930;51.112;13.762;2022-12-19T03:26:56;100432.28;;;-2.43;66.73
47166;BME280;32930;51.112;13.762;2022-12-19T03:29:28;100469.19;;;-2.65;67.03
47166;BME280;32930;51.112;13.762;2022-12-19T03:31:56;100447.00;;;-2.12;66.89
47166;BME280;32930;51.112;13.762;2022-12-19T03:34:31;100452.06;;;-2.36;66.92
47166;BME280;32930;51.112;13.762;2022-12-19T03:37:04;100438.53;;;-2.38;67.78
47166;BME280;32930;51.112;13.762;2022-12-19T03:39:33;100448.34;;;-2.29;67.10
47166;BME280;32930;51.112;13.762;2022-12-19T03:42:00;100450.53;;;-2.34;67.37
47166;BME280;32930;51.112;13.762;2022-12-19T03:44:49;100447.47;;;-2.41;66.96
47166;BME280;32930;51.112;13.762;2022-12-19T03:47:34;100447.47;;;-2.41;67.77
47166;BME280;32930;51.112;13.762;2022-12-19T03:50:01;100450.88;;;-2.17;67.46
47166;BME280;32930;51.112;13.762;2022-12-19T03:55:23;100440.38;;;-2.35;67.77
47166;BME280;32930;51.112;13.762;2022-12-19T03:57:57;100450.38;;;-2.00;67.51
47166;BME280;32930;51.112;13.762;2022-12-19T04:00:25;100468.97;;;-2.10;67.51
47166;BME280;32930;51.112;13.762;2022-12-19T04:02:54;100447.56;;;-2.16;68.43
47166;BME280;32930;51.112;13.762;2022-12-19T04:05:24;100454.03;;;-2.08;68.27
47166;BME280;32930;51.112;13.762;2022-12-19T04:07:54;100471.19;;;-2.38;68.72
47166;BME280;32930;51.112;13.762;2022-12-19T04:10:25;100463.53;;;-2.16;68.35
47166;BME280;32930;51.112;13.762;2022-12-19T04:13:02;100458.06;;;-1.98;68.28
47166;BME280;32930;51.112;13.762;2022-12-19T04:18:18;100448.81;;;-1.86;67.75
47166;BME280;32930;51.112;13.762;2022-12-19T04:20:52;100451.94;;;-2.14;68.23
47166;BME280;32930;51.112;13.762;2022-12-19T04:23:29;100437.34;;;-1.82;68.33
47166;BME280;32930;51.112;13.762;2022-12-19T04:26:01;100436.94;;;-2.00;69.01
47166;BME280;32930;51.112;13.762;2022-12-19T04:30:59;100440.34;;;-1.63;68.23
47166;BME280;32930;51.112;13.762;2022-12-19T04:33:25;100430.09;;;-1.66;67.86
47166;BME280;32930;51.112;13.762;2022-12-19T04:35:54;100445.34;;;-1.88;68.60
47166;BME280;32930;51.112;13.762;2022-12-19T04:38:19;100434.91;;;-1.69;68.29
47166;BME280;32930;51.112;13.762;2022-12-19T04:40:45;100433.66;;;-1.63;68.92
47166;BME280;32930;51.112;13.762;2022-12-19T04:43:11;100439.81;;;-1.71;68.47
47166;BME280;32930;51.112;13.762;2022-12-19T04:45:36;100427.13;;;-1.60;68.73
47166;BME280;32930;51.112;13.762;2022-12-19T04:48:02;100452.66;;;-1.91;68.78
47166;BME280;32930;51.112;13.762;2022-12-19T04:50:27;100426.75;;;-1.90;68.94
47166;BME280;32930;51.112;13.762;2022-12-19T04:52:53;100423.19;;;-1.69;69.38
47166;BME280;32930;51.112;13.762;2022-12-19T04:55:21;100433.81;;;-1.73;69.00
47166;BME280;32930;51.112;13.762;2022-12-19T04:57:47;100467.59;;;-1.69;69.51
47166;BME280;32930;51.112;13.762;2022-12-19T05:00:12;100443.06;;;-1.97;69.45
47166;BME280;32930;51.112;13.762;2022-12-19T05:02:38;100438.31;;;-1.80;69.36
47166;BME280;32930;51.112;13.762;2022-12-19T05:05:04;100456.25;;;-1.88;69.51
47166;BME280;32930;51.112;13.762;2022-12-19T05:07:29;100428.41;;;-1.54;69.08
47166;BME280;32930;51.112;13.762;2022-12-19T05:09:58;100434.28;;;-1.53;68.74
47166;BME280;32930;51.112;13.762;2022-12-19T05:12:24;100430.72;;;-1.32;68.66
47166;BME280;32930;51.112;13.762;2022-12-19T05:14:49;100433.75;;;-1.36;68.66
47166;BME280;32930;51.112;13.762;2022-12-19T05:17:15;100431.03;;;-1.39;68.81
47166;BME280;32930;51.112;13.762;2022-12-19T05:19:40;100435.88;;;-1.42;68.92
47166;BME280;32930;51.112;13.762;2022-12-19T05:22:06;100434.75;;;-1.34;69.29
47166;BME280;32930;51.112;13.762;2022-12-19T05:24:31;100437.59;;;-1.54;69.32
47166;BME280;32930;51.112;13.762;2022-12-19T05:26:57;100435.25;;;-1.26;68.64
47166;BME280;32930;51.112;13.762;2022-12-19T05:29:23;100443.94;;;-1.34;68.87
47166;BME280;32930;51.112;13.762;2022-12-19T05:31:48;100442.50;;;-1.31;69.20
47166;BME280;32930;51.112;13.762;2022-12-19T05:34:14;100448.00;;;-1.36;69.67
47166;BME280;32930;51.112;13.762;2022-12-19T05:36:40;100446.13;;;-1.64;69.63
47166;BME280;32930;51.112;13.762;2022-12-19T05:39:05;100444.94;;;-1.32;69.39
47166;BME280;32930;51.112;13.762;2022-12-19T05:41:31;100445.88;;;-1.30;69.84
47166;BME280;32930;51.112;13.762;2022-12-19T05:43:57;100465.66;;;-1.73;70.14
47166;BME280;32930;51.112;13.762;2022-12-19T05:46:23;100455.81;;;-1.82;70.86
47166;BME280;32930;51.112;13.762;2022-12-19T05:48:50;100456.13;;;-1.41;70.52
47166;BME280;32930;51.112;13.762;2022-12-19T05:51:15;100458.19;;;-1.35;70.61
47166;BME280;32930;51.112;13.762;2022-12-19T05:53:41;100456.72;;;-1.56;70.46
47166;BME280;32930;51.112;13.762;2022-12-19T05:56:16;100451.69;;;-1.56;70.82
47166;BME280;32930;51.112;13.762;2022-12-19T05:58:42;100450.47;;;-1.50;70.45
47166;BME280;32930;51.112;13.762;2022-12-19T06:01:15;100461.03;;;-1.42;70.61
47166;BME280;32930;51.112;13.762;2022-12-19T06:03:41;100453.75;;;-1.26;70.22
47166;BME280;32930;51.112;13.762;2022-12-19T06:06:13;100462.88;;;-1.40;70.48
47166;BME280;32930;51.112;13.762;2022-12-19T06:08:39;100441.56;;;-1.70;70.91
47166;BME280;32930;51.112;13.762;2022-12-19T06:11:07;100449.03;;;-1.46;70.94
47166;BME280;32930;51.112;13.762;2022-12-19T06:13:34;100449.22;;;-1.43;70.65
47166;BME280;32930;51.112;13.762;2022-12-19T06:16:02;100442.31;;;-1.34;71.17
47166;BME280;32930;51.112;13.762;2022-12-19T06:18:29;100466.06;;;-1.42;70.23
47166;BME280;32930;51.112;13.762;2022-12-19T06:21:01;100436.28;;;-1.36;71.16
47166;BME280;32930;51.112;13.762;2022-12-19T06:23:29;100454.63;;;-1.87;71.96
47166;BME280;32930;51.112;13.762;2022-12-19T06:25:56;100451.91;;;-1.28;71.61
47166;BME280;32930;51.112;13.762;2022-12-19T06:28:23;100472.91;;;-1.28;71.36
47166;BME280;32930;51.112;13.762;2022-12-19T06:30:49;100472.47;;;-1.59;71.16
47166;BME280;32930;51.112;13.762;2022-12-19T06:33:15;100480.25;;;-1.56;71.75
47166;BME280;32930;51.112;13.762;2022-12-19T06:35:41;100450.94;;;-1.30;71.62
47166;BME280;32930;51.112;13.762;2022-12-19T06:38:06;100461.66;;;-1.33;71.60
47166;BME280;32930;51.112;13.762;2022-12-19T06:40:32;100449.66;;;-1.37;71.54
47166;BME280;32930;51.112;13.762;2022-12-19T06:43:16;100451.88;;;-1.17;71.19
47166;BME280;32930;51.112;13.762;2022-12-19T06:45:41;100454.47;;;-1.40;71.52
47166;BME280;32930;51.112;13.762;2022-12-19T06:48:07;100447.03;;;-1.13;71.42
47166;BME280;32930;51.112;13.762;2022-12-19T06:50:33;100457.09;;;-1.64;71.72
47166;BME280;32930;51.112;13.762;2022-12-19T06:53:00;100475.53;;;-1.51;72.35
47166;BME280;32930;51.112;13.762;2022-12-19T06:55:26;100449.44;;;-1.40;72.23
47166;BME280;32930;51.112;13.762;2022-12-19T06:57:53;100453.03;;;-1.11;71.74
47166;BME280;32930;51.112;13.762;2022-12-19T07:00:22;100452.06;;;-1.13;71.92
47166;BME280;32930;51.112;13.762;2022-12-19T07:02:50;100446.75;;;-1.30;72.25
47166;BME280;32930;51.112;13.762;2022-12-19T07:05:17;100450.31;;;-1.14;71.87
47166;BME280;32930;51.112;13.762;2022-12-19T07:07:43;100453.16;;;-1.35;72.50
47166;BME280;32930;51.112;13.762;2022-12-19T07:10:09;100442.38;;;-1.07;71.67
47166;BME280;32930;51.112;13.762;2022-12-19T07:12:34;100443.16;;;-1.08;71.37
47166;BME280;32930;51.112;13.762;2022-12-19T07:15:00;100451.28;;;-1.37;71.89
47166;BME280;32930;51.112;13.762;2022-12-19T07:17:27;100438.25;;;-1.07;71.95
47166;BME280;32930;51.112;13.762;2022-12-19T07:19:56;100447.41;;;-1.07;71.51
47166;BME280;32930;51.112;13.762;2022-12-19T07:22:24;100436.44;;;-1.21;71.82
47166;BME280;32930;51.112;13.762;2022-12-19T07:24:51;100442.31;;;-0.82;71.24
47166;BME280;32930;51.112;13.762;2022-12-19T07:27:16;100461.69;;;-0.95;71.07
47166;BME280;32930;51.112;13.762;2022-12-19T07:29:42;100444.66;;;-1.24;72.20
47166;BME280;32930;51.112;13.762;2022-12-19T07:32:07;100451.88;;;-1.42;72.81
47166;BME280;32930;51.112;13.762;2022-12-19T07:34:33;100442.69;;;-1.03;71.83
47166;BME280;32930;51.112;13.762;2022-12-19T07:36:58;100444.19;;;-1.18;72.11
47166;BME280;32930;51.112;13.762;2022-12-19T07:39:24;100449.88;;;-1.21;71.44
47166;BME280;32930;51.112;13.762;2022-12-19T07:41:50;100439.19;;;-1.05;71.30
47166;BME280;32930;51.112;13.762;2022-12-19T07:44:15;100451.03;;;-1.04;71.64
47166;BME280;32930;51.112;13.762;2022-12-19T07:46:43;100443.53;;;-1.15;71.36
47166;BME280;32930;51.112;13.762;2022-12-19T07:49:16;100435.41;;;-0.98;71.44
47166;BME280;32930;51.112;13.762;2022-12-19T07:51:42;100436.00;;;-1.02;71.14
47166;BME280;32930;51.112;13.762;2022-12-19T07:54:09;100454.31;;;-0.91;70.94
47166;BME280;32930;51.112;13.762;2022-12-19T07:56:34;100446.13;;;-0.76;70.46
47166;BME280;32930;51.112;13.762;2022-12-19T07:59:00;100444.34;;;-1.03;71.02
47166;BME280;32930;51.112;13.762;2022-12-19T08:01:25;100446.63;;;-0.55;70.54
47166;BME280;32930;51.112;13.762;2022-12-19T08:03:51;100440.59;;;-0.70;70.36
47166;BME280;32930;51.112;13.762;2022-12-19T08:06:16;100447.69;;;-0.78;70.55
47166;BME280;32930;51.112;13.762;2022-12-19T08:08:42;100451.38;;;-0.59;70.06
47166;BME280;32930;51.112;13.762;2022-12-19T08:11:09;100461.84;;;-0.53;70.01
47166;BME280;32930;51.112;13.762;2022-12-19T08:13:36;100461.06;;;-0.52;69.68
47166;BME280;32930;51.112;13.762;2022-12-19T08:16:02;100469.94;;;-0.84;70.35
47166;BME280;32930;51.112;13.762;2022-12-19T08:18:31;100460.09;;;-0.54;69.85
47166;BME280;32930;51.112;13.762;2022-12-19T08:20:56;100449.66;;;-0.47;69.55
47166;BME280;32930;51.112;13.762;2022-12-19T08:23:22;100450.47;;;-0.73;70.00
47166;BME280;32930;51.112;13.762;2022-12-19T08:25:48;100429.47;;;-0.74;70.59
47166;BME280;32930;51.112;13.762;2022-12-19T08:28:14;100415.81;;;-0.64;70.58
47166;BME280;32930;51.112;13.762;2022-12-19T08:30:40;100423.22;;;-0.92;70.55
47166;BME280;32930;51.112;13.762;2022-12-19T08:33:07;100412.81;;;-0.72;70.57
47166;BME280;32930;51.112;13.762;2022-12-19T08:35:34;100420.94;;;-0.49;70.10
47166;BME280;32930;51.112;13.762;2022-12-19T08:38:00;100424.31;;;-0.88;70.83
47166;BME280;32930;51.112;13.762;2022-12-19T08:40:26;100415.34;;;1.55;85.02
47166;BME280;32930;51.112;13.762;2022-12-19T08:42:57;100449.25;;;-0.27;71.11
47166;BME280;32930;51.112;13.762;2022-12-19T08:45:23;100443.44;;;-0.52;70.96
47166;BME280;32930;51.112;13.762;2022-12-19T08:47:50;100413.59;;;-0.46;71.02
47166;BME280;32930;51.112;13.762;2022-12-19T08:50:16;100413.59;;;-0.46;70.62
47166;BME280;32930;51.112;13.762;2022-12-19T08:52:41;100406.28;;;-0.41;70.73
47166;BME280;32930;51.112;13.762;2022-12-19T08:55:07;100408.81;;;-0.41;71.40
47166;BME280;32930;51.112;13.762;2022-12-19T08:57:34;100385.16;;;-0.30;70.63
47166;BME280;32930;51.112;13.762;2022-12-19T08:59:59;100403.91;;;-0.53;70.76
47166;BME280;32930;51.112;13.762;2022-12-19T09:02:25;100414.06;;;-0.25;71.16
47166;BME280;32930;51.112;13.762;2022-12-19T09:04:50;100413.50;;;-0.34;70.96
47166;BME280;32930;51.112;13.762;2022-12-19T09:07:16;100404.47;;;-0.44;70.40
47166;BME280;32930;51.112;13.762;2022-12-19T09:09:43;100408.63;;;-0.31;71.50
47166;BME280;32930;51.112;13.762;2022-12-19T09:12:08;100399.91;;;-0.36;71.75
47166;BME280;32930;51.112;13.762;2022-12-19T09:14:34;100388.78;;;0.02;70.97
47166;BME280;32930;51.112;13.762;2022-12-19T09:17:00;100381.19;;;-0.27;70.87
47166;BME280;32930;51.112;13.762;2022-12-19T09:19:25;100386.50;;;0.19;70.71
47166;BME280;32930;51.112;13.762;2022-12-19T09:21:51;100387.69;;;0.11;70.84
47166;BME280;32930;51.112;13.762;2022-12-19T09:24:17;100376.78;;;-0.03;71.24
47166;BME280;32930;51.112;13.762;2022-12-19T09:26:42;100364.53;;;0.04;71.30
47166;BME280;32930;51.112;13.762;2022-12-19T09:29:09;100372.41;;;-0.47;71.95
47166;BME280;32930;51.112;13.762;2022-12-19T09:31:34;100368.97;;;0.08;71.92
47166;BME280;32930;51.112;13.762;2022-12-19T09:34:00;100374.09;;;0.09;71.55
47166;BME280;32930;51.112;13.762;2022-12-19T09:36:25;100354.84;;;0.25;71.36
47166;BME280;32930;51.112;13.762;2022-12-19T09:38:56;100356.06;;;0.16;71.11
47166;BME280;32930;51.112;13.762;2022-12-19T09:41:53;100349.44;;;0.18;71.48
47166;BME280;32930;51.112;13.762;2022-12-19T09:49:38;100367.69;;;0.14;72.04
47166;BME280;32930;51.112;13.762;2022-12-19T10:00:38;100353.66;;;0.33;71.97
47166;BME280;32930;51.112;13.762;2022-12-19T10:03:16;100339.16;;;0.15;72.32
47166;BME280;32930;51.112;13.762;2022-12-19T10:05:57;100332.94;;;0.23;72.23
47166;BME280;32930;51.112;13.762;2022-12-19T10:08:33;100343.81;;;0.37;72.24
47166;BME280;32930;51.112;13.762;2022-12-19T10:19:05;100349.84;;;0.11;73.14
47166;BME280;32930;51.112;13.762;2022-12-19T10:27:51;100325.25;;;0.22;72.73
47166;BME280;32930;51.112;13.762;2022-12-19T10:30:20;100316.34;;;0.42;72.54
47166;BME280;32930;51.112;13.762;2022-12-19T10:33:04;100327.91;;;0.38;72.68
47166;BME280;32930;51.112;13.762;2022-12-19T10:35:37;100329.75;;;0.56;72.04
47166;BME280;32930;51.112;13.762;2022-12-19T10:38:22;100331.81;;;0.63;72.05
47166;BME280;32930;51.112;13.762;2022-12-19T10:41:27;100328.53;;;0.79;70.91
47166;BME280;32930;51.112;13.762;2022-12-19T10:44:03;100307.38;;;0.77;71.37
47166;BME280;32930;51.112;13.762;2022-12-19T10:46:42;100303.19;;;0.62;71.63
47166;BME280;32930;51.112;13.762;2022-12-19T10:49:18;100318.44;;;0.64;71.85
47166;BME280;32930;51.112;13.762;2022-12-19T10:51:58;100311.91;;;0.67;71.56
47166;BME280;32930;51.112;13.762;2022-12-19T10:54:38;100303.03;;;0.89;70.92
47166;BME280;32930;51.112;13.762;2022-12-19T11:00:01;100319.91;;;0.75;70.88
47166;BME280;32930;51.112;13.762;2022-12-19T11:05:25;100308.25;;;0.77;71.36
47166;BME280;32930;51.112;13.762;2022-12-19T11:07:59;100297.41;;;1.09;70.64
47166;BME280;32930;51.112;13.762;2022-12-19T11:10:49;100316.78;;;0.79;71.53
47166;BME280;32930;51.112;13.762;2022-12-19T11:13:28;100299.34;;;0.84;71.24
47166;BME280;32930;51.112;13.762;2022-12-19T11:15:56;100297.41;;;0.95;71.06
47166;BME280;32930;51.112;13.762;2022-12-19T11:18:23;100296.03;;;0.85;71.47
47166;BME280;32930;51.112;13.762;2022-12-19T11:23:19;100283.53;;;0.72;71.15
47166;BME280;32930;51.112;13.762;2022-12-19T11:25:54;100271.41;;;0.81;71.54
47166;BME280;32930;51.112;13.762;2022-12-19T11:28:32;100273.94;;;0.81;71.44
47166;BME280;32930;51.112;13.762;2022-12-19T11:33:45;100244.53;;;0.98;71.03
47166;BME280;32930;51.112;13.762;2022-12-19T11:36:30;100251.47;;;0.85;71.06
47166;BME280;32930;51.112;13.762;2022-12-19T11:38:58;100252.53;;;0.74;71.75
47166;BME280;32930;51.112;13.762;2022-12-19T11:41:40;100245.97;;;0.92;71.45
47166;BME280;32930;51.112;13.762;2022-12-19T11:44:43;100269.41;;;0.90;71.40
47166;BME280;32930;51.112;13.762;2022-12-19T11:47:36;100246.13;;;0.96;72.01
47166;BME280;32930;51.112;13.762;2022-12-19T11:54:14;100249.94;;;0.73;72.36
47166;BME280;32930;51.112;13.762;2022-12-19T11:56:42;100245.31;;;1.11;71.55
47166;BME280;32930;51.112;13.762;2022-12-19T11:59:19;100244.66;;;0.99;71.91
47166;BME280;32930;51.112;13.762;2022-12-19T12:04:36;100230.94;;;0.79;72.80
47166;BME280;32930;51.112;13.762;2022-12-19T12:07:05;100217.50;;;0.95;72.47
47166;BME280;32930;51.112;13.762;2022-12-19T12:10:02;100204.19;;;1.14;71.97
47166;BME280;32930;51.112;13.762;2022-12-19T12:12:56;100204.34;;;1.17;72.28
47166;BME280;32930;51.112;13.762;2022-12-19T12:15:43;100207.22;;;0.92;72.67
47166;BME280;32930;51.112;13.762;2022-12-19T12:45:41;100176.59;;;1.02;72.60
47166;BME280;32930;51.112;13.762;2022-12-19T12:48:25;100179.63;;;1.11;72.25
47166;BME280;32930;51.112;13.762;2022-12-19T12:50:53;100178.72;;;1.42;71.78
47166;BME280;32930;51.112;13.762;2022-12-19T12:53:27;100172.38;;;1.18;72.54
47166;BME280;32930;51.112;13.762;2022-12-19T12:55:57;100172.69;;;1.24;72.71
47166;BME280;32930;51.112;13.762;2022-12-19T13:09:16;100157.75;;;1.28;74.57
47166;BME280;32930;51.112;13.762;2022-12-19T13:11:49;100165.97;;;1.41;74.67
47166;BME280;32930;51.112;13.762;2022-12-19T13:17:07;100161.09;;;1.44;75.78
47166;BME280;32930;51.112;13.762;2022-12-19T13:19:36;100149.63;;;1.01;76.98
47166;BME280;32930;51.112;13.762;2022-12-19T13:24:57;100153.66;;;1.14;79.57
47166;BME280;32930;51.112;13.762;2022-12-19T13:29:49;100148.59;;;1.30;81.28
47166;BME280;32930;51.112;13.762;2022-12-19T13:32:20;100151.63;;;1.39;81.52
47166;BME280;32930;51.112;13.762;2022-12-19T13:35:30;100164.78;;;1.34;82.03
